createdAt,value
2018-08-16T00:02:15.146Z,4.80
2018-08-16T00:04:42.472Z,5.00
2018-08-16T00:07:09.642Z,4.90
2018-08-16T00:09:36.737Z,4.80
2018-08-16T00:12:04.021Z,4.60
2018-08-16T00:14:31.124Z,5.00
2018-08-16T00:16:58.228Z,5.03
2018-08-16T00:19:25.456Z,5.17
2018-08-16T00:21:52.553Z,5.20
2018-08-16T00:24:19.652Z,5.00
2018-08-16T00:26:46.740Z,4.47
2018-08-16T00:29:13.849Z,5.03
2018-08-16T00:31:40.936Z,4.43
2018-08-16T00:34:08.052Z,4.93
2018-08-16T00:36:35.189Z,4.63
2018-08-16T00:39:02.317Z,5.27
2018-08-16T00:41:29.413Z,5.47
2018-08-16T00:43:56.520Z,5.53
2018-08-16T00:46:23.617Z,5.30
2018-08-16T00:48:50.808Z,5.30
2018-08-16T00:51:18.252Z,5.30
2018-08-16T00:53:45.368Z,5.17
2018-08-16T00:56:12.456Z,5.20
2018-08-16T00:58:39.564Z,6.30
2018-08-16T01:01:06.668Z,5.30
2018-08-16T01:03:33.777Z,5.90
2018-08-16T01:06:00.864Z,5.60
2018-08-16T01:08:27.974Z,4.97
2018-08-16T01:10:55.068Z,5.13
2018-08-16T01:13:22.169Z,6.03
2018-08-16T01:15:49.277Z,5.37
2018-08-16T01:18:16.512Z,5.77
2018-08-16T01:20:43.613Z,5.27
2018-08-16T01:23:10.713Z,5.73
2018-08-16T01:25:37.849Z,5.20
2018-08-16T01:28:05.042Z,5.50
2018-08-16T01:30:32.137Z,5.20
2018-08-16T01:32:59.233Z,5.73
2018-08-16T01:35:26.358Z,5.10
2018-08-16T01:37:53.421Z,5.77
2018-08-16T01:40:20.520Z,5.13
2018-08-16T01:42:47.620Z,5.83
2018-08-16T01:45:14.717Z,5.50
2018-08-16T01:47:41.809Z,5.63
2018-08-16T01:50:09.168Z,5.40
2018-08-16T01:52:36.236Z,5.60
2018-08-16T01:55:03.542Z,5.27
2018-08-16T01:57:30.652Z,5.50
2018-08-16T01:59:57.782Z,6.10
2018-08-16T02:02:24.894Z,5.40
2018-08-16T02:04:51.997Z,4.97
2018-08-16T02:07:19.108Z,5.03
2018-08-16T02:09:46.217Z,4.90
2018-08-16T02:12:13.325Z,5.30
2018-08-16T02:14:40.428Z,4.73
2018-08-16T02:17:07.564Z,5.10
2018-08-16T02:19:34.673Z,5.10
2018-08-16T02:22:01.770Z,4.50
2018-08-16T02:24:28.866Z,5.00
2018-08-16T02:26:55.963Z,4.80
2018-08-16T02:29:23.092Z,5.20
2018-08-16T02:31:50.202Z,5.17
2018-08-16T02:34:17.303Z,5.07
2018-08-16T02:36:44.392Z,5.13
2018-08-16T02:39:11.493Z,5.50
2018-08-16T02:41:39.132Z,4.97
2018-08-16T02:44:07.017Z,5.00
2018-08-16T02:46:34.123Z,4.77
2018-08-16T02:49:01.217Z,4.97
2018-08-16T02:51:28.309Z,5.20
2018-08-16T02:53:55.405Z,5.23
2018-08-16T02:56:22.497Z,5.17
2018-08-16T02:58:49.593Z,5.00
2018-08-16T03:01:16.678Z,5.30
2018-08-16T03:03:43.775Z,4.73
2018-08-16T03:06:10.962Z,5.27
2018-08-16T03:08:37.976Z,4.73
2018-08-16T03:11:05.262Z,5.53
2018-08-16T03:13:32.369Z,4.70
2018-08-16T03:15:59.458Z,5.00
2018-08-16T03:18:26.552Z,4.80
2018-08-16T03:20:53.644Z,4.90
2018-08-16T03:23:20.773Z,5.10
2018-08-16T03:25:47.890Z,5.63
2018-08-16T03:28:14.980Z,5.00
2018-08-16T03:30:42.081Z,5.70
2018-08-16T03:33:09.173Z,5.20
2018-08-16T03:35:36.276Z,5.30
2018-08-16T03:38:03.408Z,5.53
2018-08-16T03:40:30.501Z,6.03
2018-08-16T03:42:57.597Z,5.80
2018-08-16T03:45:24.733Z,5.57
2018-08-16T03:47:51.829Z,6.07
2018-08-16T03:50:18.929Z,5.60
2018-08-16T03:52:46.020Z,5.20
2018-08-16T03:55:13.129Z,5.50
2018-08-16T03:57:40.260Z,5.47
2018-08-16T04:00:07.724Z,5.30
2018-08-16T04:02:34.822Z,5.07
2018-08-16T04:05:01.917Z,5.50
2018-08-16T04:07:29.100Z,5.17
2018-08-16T04:09:56.205Z,5.40
2018-08-16T04:12:23.294Z,4.90
2018-08-16T04:14:50.388Z,5.17
2018-08-16T04:17:17.481Z,5.57
2018-08-16T04:19:44.573Z,4.97
2018-08-16T04:22:11.700Z,5.17
2018-08-16T04:24:38.876Z,4.70
2018-08-16T04:27:05.969Z,5.20
2018-08-16T04:29:33.060Z,5.30
2018-08-16T04:32:00.193Z,5.63
2018-08-16T04:34:27.289Z,5.50
2018-08-16T04:36:54.384Z,5.20
2018-08-16T04:39:21.485Z,5.40
2018-08-16T04:41:48.747Z,5.40
2018-08-16T04:44:15.888Z,5.77
2018-08-16T04:46:43.056Z,5.30
2018-08-16T04:49:10.164Z,5.80
2018-08-16T04:51:37.261Z,5.37
2018-08-16T04:54:04.357Z,6.00
2018-08-16T04:56:31.462Z,6.23
2018-08-16T04:58:58.552Z,5.70
2018-08-16T05:01:25.645Z,5.63
2018-08-16T05:03:52.750Z,5.97
2018-08-16T05:06:20.377Z,5.87
2018-08-16T05:08:47.468Z,6.00
2018-08-16T05:11:14.565Z,5.63
2018-08-16T05:13:41.729Z,5.97
2018-08-16T05:16:08.824Z,5.83
2018-08-16T05:18:36.977Z,5.80
2018-08-16T05:21:04.312Z,5.90
2018-08-16T05:23:31.437Z,5.93
2018-08-16T05:25:58.588Z,6.13
2018-08-16T05:28:25.789Z,6.10
2018-08-16T05:30:53.056Z,6.23
2018-08-16T05:33:20.163Z,6.30
2018-08-16T05:35:47.290Z,6.60
2018-08-16T05:38:14.545Z,6.10
2018-08-16T05:40:41.652Z,6.50
2018-08-16T05:43:08.850Z,6.07
2018-08-16T05:45:35.850Z,6.30
2018-08-16T05:48:03.162Z,6.37
2018-08-16T05:50:30.193Z,6.00
2018-08-16T05:52:57.313Z,6.90
2018-08-16T05:55:29.485Z,6.27
2018-08-16T05:57:56.616Z,5.97
2018-08-16T06:00:31.458Z,6.70
2018-08-16T06:03:02.572Z,6.80
2018-08-16T06:05:34.870Z,6.97
2018-08-16T06:08:02.104Z,6.73
2018-08-16T06:10:29.261Z,6.60
2018-08-16T06:12:59.340Z,6.00
2018-08-16T06:15:28.974Z,6.53
2018-08-16T06:18:01.540Z,6.90
2018-08-16T06:20:30.772Z,6.93
2018-08-16T06:23:00.803Z,6.13
2018-08-16T06:25:28.076Z,6.83
2018-08-16T06:27:55.169Z,8.00
2018-08-16T06:30:22.292Z,6.80
2018-08-16T06:32:49.608Z,6.67
2018-08-16T06:35:16.733Z,7.70
2018-08-16T06:37:44.127Z,7.83
2018-08-16T06:40:12.617Z,7.50
2018-08-16T06:42:40.065Z,7.43
2018-08-16T06:45:08.334Z,6.87
2018-08-16T06:47:35.447Z,7.20
2018-08-16T06:50:02.561Z,7.50
2018-08-16T06:52:29.722Z,7.50
2018-08-16T06:54:56.762Z,7.00
2018-08-16T06:57:23.937Z,7.17
2018-08-16T06:59:51.097Z,6.80
2018-08-16T07:02:18.225Z,6.93
2018-08-16T07:04:45.376Z,7.30
2018-08-16T07:07:12.485Z,7.47
2018-08-16T07:09:39.564Z,6.87
2018-08-16T07:12:06.744Z,7.20
2018-08-16T07:14:33.813Z,7.00
2018-08-16T07:17:00.932Z,7.10
2018-08-16T07:19:28.025Z,7.40
2018-08-16T07:21:55.122Z,8.47
2018-08-16T07:24:22.244Z,6.87
2018-08-16T07:26:49.328Z,7.30
2018-08-16T07:29:16.488Z,7.87
2018-08-16T07:31:43.569Z,7.40
2018-08-16T07:34:10.677Z,9.00
2018-08-16T07:36:37.849Z,7.40
2018-08-16T07:39:06.660Z,8.27
2018-08-16T07:41:33.762Z,7.80
2018-08-16T07:44:00.912Z,8.47
2018-08-16T07:46:28.178Z,8.90
2018-08-16T07:48:55.101Z,7.40
2018-08-16T07:51:22.470Z,8.90
2018-08-16T07:53:49.360Z,9.33
2018-08-16T07:56:16.448Z,8.17
2018-08-16T07:58:43.565Z,7.90
2018-08-16T08:01:10.665Z,8.30
2018-08-16T08:03:37.757Z,8.97
2018-08-16T08:06:04.857Z,7.47
2018-08-16T08:08:31.968Z,7.87
2018-08-16T08:10:59.061Z,7.60
2018-08-16T08:13:26.174Z,8.33
2018-08-16T08:15:53.297Z,7.10
2018-08-16T08:18:20.394Z,7.53
2018-08-16T08:20:47.588Z,7.27
2018-08-16T08:23:14.653Z,7.70
2018-08-16T08:25:41.745Z,6.63
2018-08-16T08:28:08.848Z,7.00
2018-08-16T08:30:35.941Z,7.90
2018-08-16T08:33:03.044Z,6.87
2018-08-16T08:35:30.134Z,6.83
2018-08-16T08:37:58.254Z,6.60
2018-08-16T08:40:25.629Z,7.40
2018-08-16T08:42:52.725Z,7.03
2018-08-16T08:45:19.958Z,6.97
2018-08-16T08:47:49.107Z,8.10
2018-08-16T08:50:16.216Z,6.97
2018-08-16T08:52:43.274Z,7.60
2018-08-16T08:55:16.068Z,7.37
2018-08-16T08:57:48.711Z,7.03
2018-08-16T09:00:15.808Z,6.50
2018-08-16T09:02:42.917Z,6.63
2018-08-16T09:05:10.056Z,6.50
2018-08-16T09:07:37.161Z,6.43
2018-08-16T09:11:11.922Z,5.40
2018-08-16T09:13:44.931Z,5.10
2018-08-16T09:16:13.844Z,5.10
2018-08-16T09:18:40.946Z,5.00
2018-08-16T09:21:08.820Z,5.40
2018-08-16T09:23:35.957Z,6.47
2018-08-16T09:27:06.428Z,5.17
2018-08-16T09:29:39.201Z,6.23
2018-08-16T09:33:12.705Z,5.90
2018-08-16T09:35:39.801Z,6.00
2018-08-16T09:38:07.391Z,5.10
2018-08-16T09:40:34.489Z,5.43
2018-08-16T09:43:01.582Z,5.30
2018-08-16T09:45:34.481Z,4.80
2018-08-16T09:48:07.209Z,7.20
2018-08-16T09:50:34.334Z,5.53
2018-08-16T09:53:01.428Z,5.60
2018-08-16T09:55:28.684Z,5.00
2018-08-16T09:57:55.793Z,5.37
2018-08-16T10:00:28.441Z,6.13
2018-08-16T10:02:55.549Z,5.10
2018-08-16T10:05:22.641Z,5.33
2018-08-16T10:07:49.757Z,5.23
2018-08-16T10:10:16.929Z,5.57
2018-08-16T10:12:43.997Z,5.53
2018-08-16T10:15:11.097Z,6.70
2018-08-16T10:17:38.198Z,5.73
2018-08-16T10:20:05.817Z,5.73
2018-08-16T10:22:32.985Z,5.37
2018-08-16T10:25:00.085Z,5.07
2018-08-16T10:27:27.188Z,5.07
2018-08-16T10:29:54.317Z,5.40
2018-08-16T10:32:21.438Z,4.97
2018-08-16T10:34:48.551Z,5.43
2018-08-16T10:37:15.765Z,5.00
2018-08-16T10:39:42.763Z,5.40
2018-08-16T10:42:09.864Z,4.30
2018-08-16T10:44:37.045Z,4.63
2018-08-16T10:47:04.135Z,4.80
2018-08-16T10:49:31.432Z,4.53
2018-08-16T10:51:59.260Z,5.63
2018-08-16T10:54:28.005Z,4.50
2018-08-16T10:56:55.104Z,4.67
2018-08-16T10:59:22.193Z,4.90
2018-08-16T11:01:49.345Z,5.20
2018-08-16T11:04:16.491Z,4.80
2018-08-16T11:06:43.588Z,4.67
2018-08-16T11:09:10.701Z,4.80
2018-08-16T11:11:39.036Z,5.60
2018-08-16T11:14:06.297Z,4.80
2018-08-16T11:16:33.391Z,5.23
2018-08-16T11:19:00.675Z,4.83
2018-08-16T11:21:27.625Z,4.57
2018-08-16T11:23:54.732Z,4.97
2018-08-16T11:26:21.853Z,5.20
2018-08-16T11:28:48.970Z,5.10
2018-08-16T11:31:16.061Z,5.00
2018-08-16T11:33:43.166Z,4.60
2018-08-16T11:36:10.258Z,5.00
2018-08-16T11:38:37.363Z,5.50
2018-08-16T11:41:04.478Z,4.60
2018-08-16T11:43:31.691Z,4.97
2018-08-16T11:45:59.061Z,5.10
2018-08-16T11:48:26.180Z,4.43
2018-08-16T11:50:53.292Z,4.67
2018-08-16T11:53:20.938Z,5.23
2018-08-16T11:55:48.051Z,5.00
2018-08-16T11:58:15.230Z,5.07
2018-08-16T12:00:42.349Z,5.47
2018-08-16T12:03:09.465Z,4.60
2018-08-16T12:05:38.041Z,4.47
2018-08-16T12:08:05.125Z,4.80
2018-08-16T12:10:32.333Z,4.70
2018-08-16T12:12:59.477Z,4.53
2018-08-16T12:15:26.627Z,5.00
2018-08-16T12:17:53.729Z,4.80
2018-08-16T12:20:20.929Z,4.90
2018-08-16T12:22:48.026Z,4.87
2018-08-16T12:25:15.118Z,4.43
2018-08-16T12:27:43.535Z,4.50
2018-08-16T12:30:10.642Z,5.33
2018-08-16T12:32:37.957Z,4.80
2018-08-16T12:35:05.394Z,4.47
2018-08-16T12:37:32.497Z,4.67
2018-08-16T12:40:00.413Z,4.57
2018-08-16T12:42:27.525Z,4.50
2018-08-16T12:44:54.621Z,4.60
2018-08-16T12:47:21.740Z,4.67
2018-08-16T12:49:48.815Z,4.50
2018-08-16T12:52:15.924Z,4.10
2018-08-16T12:54:43.097Z,4.53
2018-08-16T12:57:10.193Z,4.43
2018-08-16T12:59:37.306Z,4.10
2018-08-16T13:02:04.404Z,5.00
2018-08-16T13:04:31.525Z,4.80
2018-08-16T13:06:58.629Z,4.40
2018-08-16T13:09:25.784Z,4.60
2018-08-16T13:11:52.871Z,4.37
2018-08-16T13:14:19.977Z,4.47
2018-08-16T13:16:47.331Z,4.87
2018-08-16T13:19:14.433Z,4.37
2018-08-16T13:21:41.537Z,4.40
2018-08-16T13:24:08.906Z,4.70
2018-08-16T13:26:36.001Z,4.20
2018-08-16T13:29:03.100Z,4.10
2018-08-16T13:31:30.228Z,4.20
2018-08-16T13:33:57.314Z,4.43
2018-08-16T13:36:24.417Z,4.60
2018-08-16T13:38:51.517Z,4.07
2018-08-16T13:41:18.608Z,4.70
2018-08-16T13:43:45.702Z,4.03
2018-08-16T13:46:12.810Z,4.30
2018-08-16T13:48:39.915Z,4.30
2018-08-16T13:51:07.021Z,4.60
2018-08-16T13:53:34.115Z,4.20
2018-08-16T13:56:01.233Z,4.83
2018-08-16T13:58:28.360Z,4.83
2018-08-16T14:00:55.457Z,4.30
2018-08-16T14:03:22.549Z,4.90
2018-08-16T14:05:49.637Z,4.63
2018-08-16T14:08:17.037Z,4.20
2018-08-16T14:10:45.765Z,4.37
2018-08-16T14:13:12.895Z,4.93
2018-08-16T14:15:39.954Z,5.23
2018-08-16T14:18:07.071Z,4.50
2018-08-16T14:20:34.305Z,4.40
2018-08-16T14:23:01.402Z,5.00
2018-08-16T14:25:28.698Z,4.70
2018-08-16T14:27:55.761Z,4.67
2018-08-16T14:30:22.883Z,4.53
2018-08-16T14:32:49.984Z,5.20
2018-08-16T14:35:17.100Z,4.47
2018-08-16T14:37:44.240Z,4.60
2018-08-16T14:40:11.332Z,4.77
2018-08-16T14:42:38.432Z,5.00
2018-08-16T14:45:06.202Z,4.90
2018-08-16T14:47:33.291Z,5.43
2018-08-16T14:50:00.393Z,5.07
2018-08-16T14:52:27.501Z,5.30
2018-08-16T14:54:54.596Z,5.40
2018-08-16T14:57:21.749Z,5.40
2018-08-16T14:59:48.836Z,5.00
2018-08-16T15:02:15.937Z,5.30
2018-08-16T15:04:43.062Z,5.30
2018-08-16T15:07:10.160Z,5.33
2018-08-16T15:09:37.265Z,5.20
2018-08-16T15:12:04.386Z,5.17
2018-08-16T15:14:31.472Z,5.47
2018-08-16T15:16:58.574Z,5.10
2018-08-16T15:19:25.672Z,5.27
2018-08-16T15:21:53.082Z,4.90
2018-08-16T15:24:20.968Z,5.30
2018-08-16T15:26:48.594Z,5.57
2018-08-16T15:29:15.755Z,5.10
2018-08-16T15:31:42.836Z,5.53
2018-08-16T15:34:09.941Z,5.57
2018-08-16T15:36:37.277Z,5.23
2018-08-16T15:39:05.869Z,5.77
2018-08-16T15:41:32.973Z,5.40
2018-08-16T15:44:00.064Z,5.47
2018-08-16T15:46:27.164Z,5.10
2018-08-16T15:48:54.240Z,4.87
2018-08-16T15:51:21.353Z,5.27
2018-08-16T15:53:48.454Z,5.30
2018-08-16T15:56:15.545Z,5.00
2018-08-16T15:58:42.641Z,5.10
2018-08-16T16:01:09.767Z,5.43
2018-08-16T16:03:36.873Z,4.93
2018-08-16T16:06:04.154Z,5.30
2018-08-16T16:08:31.142Z,5.67
2018-08-16T16:10:58.245Z,5.10
2018-08-16T16:13:25.414Z,5.27
2018-08-16T16:15:52.509Z,5.37
2018-08-16T16:18:19.649Z,5.37
2018-08-16T16:20:46.760Z,5.50
2018-08-16T16:23:13.874Z,5.30
2018-08-16T16:25:41.078Z,5.00
2018-08-16T16:28:08.189Z,5.43
2018-08-16T16:30:35.296Z,5.10
2018-08-16T16:33:02.642Z,5.73
2018-08-16T16:35:29.732Z,5.20
2018-08-16T16:37:56.832Z,4.67
2018-08-16T16:40:24.008Z,5.30
2018-08-16T16:42:51.117Z,5.67
2018-08-16T16:45:18.214Z,5.00
2018-08-16T16:47:45.320Z,5.50
2018-08-16T16:50:12.414Z,6.40
2018-08-16T16:52:39.617Z,5.87
2018-08-16T16:55:06.770Z,6.27
2018-08-16T16:57:34.068Z,6.23
2018-08-16T17:00:01.174Z,6.53
2018-08-16T17:02:28.260Z,6.70
2018-08-16T17:04:55.352Z,6.50
2018-08-16T17:07:22.551Z,7.43
2018-08-16T17:09:49.553Z,7.80
2018-08-16T17:12:16.665Z,6.73
2018-08-16T17:14:43.768Z,7.77
2018-08-16T17:17:10.868Z,7.20
2018-08-16T17:19:37.967Z,7.50
2018-08-16T17:22:05.408Z,7.57
2018-08-16T17:24:32.496Z,7.10
2018-08-16T17:26:59.609Z,6.90
2018-08-16T17:29:26.696Z,7.13
2018-08-16T17:31:53.855Z,7.07
2018-08-16T17:34:21.205Z,7.00
2018-08-16T17:36:48.337Z,7.50
2018-08-16T17:39:15.392Z,6.90
2018-08-16T17:41:42.510Z,7.60
2018-08-16T17:44:09.640Z,7.03
2018-08-16T17:46:36.741Z,7.50
2018-08-16T17:49:03.838Z,7.20
2018-08-16T17:51:30.937Z,7.20
2018-08-16T17:53:58.073Z,7.20
2018-08-16T17:56:25.694Z,7.83
2018-08-16T17:58:55.409Z,7.40
2018-08-16T18:01:22.517Z,7.50
2018-08-16T18:03:49.636Z,7.10
2018-08-16T18:06:16.750Z,7.90
2018-08-16T18:08:44.118Z,7.33
2018-08-16T18:11:11.549Z,7.70
2018-08-16T18:13:38.733Z,7.83
2018-08-16T18:16:05.832Z,7.70
2018-08-16T18:18:32.937Z,7.37
2018-08-16T18:21:00.045Z,8.20
2018-08-16T18:23:27.168Z,7.90
2018-08-16T18:25:54.259Z,7.70
2018-08-16T18:28:21.809Z,7.77
2018-08-16T18:30:48.922Z,7.63
2018-08-16T18:33:16.080Z,8.10
2018-08-16T18:35:43.204Z,7.70
2018-08-16T18:38:10.335Z,8.10
2018-08-16T18:40:37.433Z,7.90
2018-08-16T18:43:04.644Z,8.27
2018-08-16T18:45:31.759Z,8.37
2018-08-16T18:47:58.896Z,8.30
2018-08-16T18:50:25.996Z,8.57
2018-08-16T18:52:53.088Z,8.50
2018-08-16T18:55:20.217Z,8.23
2018-08-16T18:57:47.320Z,8.40
2018-08-16T19:00:14.449Z,8.40
2018-08-16T19:02:41.866Z,8.20
2018-08-16T19:05:08.978Z,8.23
2018-08-16T19:07:36.123Z,8.97
2018-08-16T19:10:03.251Z,8.23
2018-08-16T19:12:30.576Z,8.37
2018-08-16T19:14:58.074Z,8.80
2018-08-16T19:17:31.917Z,8.80
2018-08-16T19:19:59.026Z,8.17
2018-08-16T19:22:26.121Z,8.47
2018-08-16T19:24:53.267Z,8.67
2018-08-16T19:27:20.405Z,9.00
2018-08-16T19:29:48.887Z,9.53
2018-08-16T19:32:15.985Z,8.43
2018-08-16T19:34:43.082Z,9.40
2018-08-16T19:37:10.199Z,9.37
2018-08-16T19:39:39.646Z,9.63
2018-08-16T19:42:06.881Z,8.87
2018-08-16T19:47:14.173Z,8.97
2018-08-16T19:49:41.286Z,9.07
2018-08-16T19:52:08.420Z,9.57
2018-08-16T19:54:35.496Z,10.17
2018-08-16T19:57:02.653Z,10.63
2018-08-16T19:59:29.765Z,10.23
2018-08-16T20:01:56.882Z,10.37
2018-08-16T20:04:23.992Z,10.10
2018-08-16T20:06:51.102Z,10.10
2018-08-16T20:09:18.274Z,9.97
2018-08-16T20:11:45.400Z,9.00
2018-08-16T20:14:12.611Z,9.63
2018-08-16T20:16:39.760Z,9.27
2018-08-16T20:19:06.845Z,9.10
2018-08-16T20:21:34.010Z,9.80
2018-08-16T20:24:01.212Z,9.50
2018-08-16T20:26:28.288Z,9.13
2018-08-16T20:28:55.405Z,10.63
2018-08-16T20:31:23.610Z,9.93
2018-08-16T20:33:50.716Z,9.97
2018-08-16T20:36:17.831Z,9.73
2018-08-16T20:38:44.941Z,10.20
2018-08-16T20:41:12.105Z,10.30
2018-08-16T20:43:39.218Z,10.20
2018-08-16T20:46:06.345Z,10.20
2018-08-16T20:48:33.453Z,10.33
2018-08-16T20:51:00.561Z,9.80
2018-08-16T20:53:27.660Z,9.73
2018-08-16T20:55:54.806Z,10.17
2018-08-16T20:58:22.315Z,9.70
2018-08-16T21:00:49.423Z,10.80
2018-08-16T21:03:16.800Z,11.00
2018-08-16T21:05:43.917Z,10.67
2018-08-16T21:08:11.021Z,10.90
2018-08-16T21:10:38.157Z,9.90
2018-08-16T21:13:05.272Z,9.90
2018-08-16T21:15:32.522Z,9.50
2018-08-16T21:17:59.648Z,10.30
2018-08-16T21:20:26.779Z,10.13
2018-08-16T21:22:53.892Z,10.00
2018-08-16T21:25:21.004Z,10.00
2018-08-16T21:27:48.145Z,10.20
2018-08-16T21:30:15.266Z,10.20
2018-08-16T21:32:42.369Z,10.47
2018-08-16T21:35:09.485Z,10.80
2018-08-16T21:37:36.602Z,10.30
2018-08-16T21:40:03.776Z,11.43
2018-08-16T21:42:30.886Z,11.03
2018-08-16T21:44:57.989Z,10.77
2018-08-16T21:47:25.141Z,11.10
2018-08-16T21:49:52.257Z,10.50
2018-08-16T21:52:19.368Z,10.53
2018-08-16T21:54:46.563Z,10.50
2018-08-16T21:57:13.661Z,10.13
2018-08-16T21:59:40.761Z,11.10
2018-08-16T22:02:07.886Z,10.10
2018-08-16T22:04:35.013Z,10.40
2018-08-16T22:07:04.284Z,10.60
2018-08-16T22:09:31.409Z,10.20
2018-08-16T22:11:58.521Z,9.77
2018-08-16T22:14:25.642Z,10.30
2018-08-16T22:16:52.752Z,10.40
2018-08-16T22:19:19.869Z,10.73
2018-08-16T22:21:46.973Z,11.60
2018-08-16T22:24:14.093Z,11.30
2018-08-16T22:26:41.220Z,10.43
2018-08-16T22:29:08.326Z,10.10
2018-08-16T22:31:35.428Z,10.70
2018-08-16T22:34:02.640Z,10.83
2018-08-16T22:36:29.704Z,10.40
2018-08-16T22:38:56.805Z,10.37
2018-08-16T22:41:23.934Z,10.40
2018-08-16T22:43:51.036Z,9.90
2018-08-16T22:46:18.145Z,10.00
2018-08-16T22:48:45.252Z,10.10
2018-08-16T22:51:12.380Z,10.77
2018-08-16T22:53:39.497Z,10.27
2018-08-16T22:56:06.605Z,10.03
2018-08-16T22:58:33.709Z,10.70
2018-08-16T23:01:00.820Z,10.63
2018-08-16T23:03:27.958Z,10.80
2018-08-16T23:05:55.081Z,10.70
2018-08-16T23:08:22.189Z,11.30
2018-08-16T23:10:49.328Z,11.50
2018-08-16T23:13:16.433Z,10.10
2018-08-16T23:15:43.545Z,11.20
2018-08-16T23:18:10.656Z,11.40
2018-08-16T23:20:37.753Z,10.80
2018-08-16T23:23:04.857Z,10.53
2018-08-16T23:25:32.013Z,10.97
2018-08-16T23:27:59.509Z,10.90
2018-08-16T23:30:26.727Z,10.93
2018-08-16T23:32:53.814Z,11.00
2018-08-16T23:35:27.354Z,10.67
2018-08-16T23:37:54.520Z,11.90
2018-08-16T23:40:21.637Z,11.10
2018-08-16T23:42:48.796Z,10.50
2018-08-16T23:45:15.854Z,11.20
2018-08-16T23:47:47.460Z,10.77
2018-08-16T23:50:14.581Z,10.20
2018-08-16T23:52:41.693Z,10.60
2018-08-16T23:55:08.920Z,11.10
2018-08-16T23:57:36.033Z,11.10
